createdAt,value
2022-10-30T00:01:17.142Z,13.14
2022-10-30T00:03:44.973Z,13.14
2022-10-30T00:06:12.969Z,13.14
2022-10-30T00:08:40.310Z,13.15
2022-10-30T00:11:14.547Z,13.12
2022-10-30T00:13:47.049Z,13.06
2022-10-30T00:16:14.584Z,13.07
2022-10-30T00:18:44.746Z,13.09
2022-10-30T00:21:15.942Z,13.08
2022-10-30T00:23:50.517Z,13.05
2022-10-30T00:26:20.316Z,13.03
2022-10-30T00:28:55.895Z,13.07
2022-10-30T00:31:23.764Z,13.07
2022-10-30T00:33:55.399Z,13.06
2022-10-30T00:36:23.694Z,13.05
2022-10-30T00:38:50.976Z,13.02
2022-10-30T00:41:22.591Z,13.05
2022-10-30T00:43:50.966Z,13.09
2022-10-30T00:46:33.277Z,13.05
2022-10-30T00:49:16.737Z,13.01
2022-10-30T00:51:52.631Z,13.04
2022-10-30T00:54:22.691Z,13.10
2022-10-30T00:56:51.717Z,13.03
2022-10-30T00:59:30.542Z,12.99
2022-10-30T01:01:58.983Z,13.01
2022-10-30T01:04:30.160Z,13.07
2022-10-30T01:07:05.740Z,12.99
2022-10-30T01:09:34.161Z,12.91
2022-10-30T01:12:01.470Z,12.93
2022-10-30T01:14:29.074Z,12.88
2022-10-30T01:17:27.185Z,12.88
2022-10-30T01:20:18.951Z,12.89
2022-10-30T01:23:14.026Z,12.88
2022-10-30T01:26:09.888Z,12.91
2022-10-30T01:29:07.830Z,12.93
2022-10-30T01:31:50.072Z,13.01
2022-10-30T01:35:05.597Z,12.98
2022-10-30T01:38:02.475Z,12.92
2022-10-30T01:40:48.471Z,12.93
2022-10-30T01:43:16.000Z,12.97
2022-10-30T01:46:07.166Z,12.98
2022-10-30T01:49:07.494Z,13.00
2022-10-30T01:52:15.475Z,13.00
2022-10-30T01:54:57.120Z,13.03
2022-10-30T01:57:57.784Z,12.99
2022-10-30T02:00:25.221Z,12.96
2022-10-30T02:02:53.107Z,13.01
2022-10-30T02:05:47.687Z,12.99
2022-10-30T02:08:15.257Z,13.05
2022-10-30T02:10:47.092Z,13.07
2022-10-30T02:13:15.064Z,13.12
2022-10-30T02:15:44.702Z,13.16
2022-10-30T02:18:12.100Z,13.18
2022-10-30T02:20:39.712Z,13.15
2022-10-30T02:23:09.096Z,13.11
2022-10-30T02:25:36.831Z,13.18
2022-10-30T02:28:04.342Z,13.18
2022-10-30T02:30:31.891Z,13.17
2022-10-30T02:32:59.575Z,13.22
2022-10-30T02:35:27.172Z,13.24
2022-10-30T02:37:54.954Z,13.19
2022-10-30T02:40:22.318Z,13.13
2022-10-30T02:42:55.847Z,13.18
2022-10-30T02:45:23.574Z,13.12
2022-10-30T02:47:50.977Z,13.14
2022-10-30T02:50:18.200Z,13.14
2022-10-30T02:52:45.858Z,13.16
2022-10-30T02:55:13.267Z,13.11
2022-10-30T02:57:40.468Z,13.06
2022-10-30T03:00:08.832Z,13.13
2022-10-30T03:02:36.185Z,13.10
2022-10-30T03:05:03.452Z,13.09
2022-10-30T03:07:30.884Z,13.10
2022-10-30T03:09:58.057Z,13.13
2022-10-30T03:12:25.290Z,13.13
2022-10-30T03:14:52.724Z,13.12
2022-10-30T03:17:19.950Z,13.11
2022-10-30T03:19:47.134Z,13.13
2022-10-30T03:22:14.533Z,13.13
2022-10-30T03:24:41.755Z,13.05
2022-10-30T03:27:09.207Z,13.14
2022-10-30T03:29:36.398Z,13.12
2022-10-30T03:32:03.772Z,13.10
2022-10-30T03:34:31.244Z,13.12
2022-10-30T03:36:58.481Z,13.10
2022-10-30T03:39:25.714Z,13.13
2022-10-30T03:41:53.264Z,13.14
2022-10-30T03:44:20.399Z,13.24
2022-10-30T03:46:47.601Z,13.18
2022-10-30T03:49:14.950Z,13.22
2022-10-30T03:51:42.199Z,13.19
2022-10-30T03:54:09.341Z,13.18
2022-10-30T03:56:36.797Z,13.05
2022-10-30T03:59:04.014Z,13.02
2022-10-30T04:01:31.303Z,13.05
2022-10-30T04:03:58.857Z,13.09
2022-10-30T04:06:26.045Z,13.08
2022-10-30T04:08:55.722Z,13.09
2022-10-30T04:11:23.124Z,13.13
2022-10-30T04:13:50.435Z,13.07
2022-10-30T04:16:17.691Z,13.09
2022-10-30T04:18:45.108Z,13.05
2022-10-30T04:21:12.284Z,13.11
2022-10-30T04:23:39.511Z,12.97
2022-10-30T04:26:07.071Z,12.97
2022-10-30T04:28:34.258Z,12.96
2022-10-30T04:31:01.433Z,12.96
2022-10-30T04:33:28.939Z,13.00
2022-10-30T04:35:56.262Z,12.98
2022-10-30T04:38:23.438Z,12.98
2022-10-30T04:40:50.870Z,13.00
2022-10-30T04:43:18.166Z,12.96
2022-10-30T04:45:45.418Z,12.94
2022-10-30T04:48:17.064Z,12.91
2022-10-30T04:50:44.881Z,12.97
2022-10-30T04:53:19.043Z,12.96
2022-10-30T04:55:46.878Z,12.95
2022-10-30T04:58:15.049Z,12.94
2022-10-30T05:00:42.451Z,12.92
2022-10-30T05:03:19.879Z,12.92
2022-10-30T05:05:55.740Z,12.93
2022-10-30T05:08:23.195Z,12.92
2022-10-30T05:10:50.397Z,12.97
2022-10-30T05:13:17.561Z,12.92
2022-10-30T05:15:45.140Z,12.83
2022-10-30T05:18:12.658Z,12.95
2022-10-30T05:20:40.282Z,12.93
2022-10-30T05:23:07.722Z,13.01
2022-10-30T05:25:35.646Z,13.02
2022-10-30T05:28:06.371Z,13.04
2022-10-30T05:30:36.052Z,13.02
2022-10-30T05:33:09.644Z,13.04
2022-10-30T05:35:37.956Z,13.04
2022-10-30T05:38:07.363Z,13.05
2022-10-30T05:40:35.955Z,13.07
2022-10-30T05:43:05.893Z,13.04
2022-10-30T05:45:33.233Z,13.01
2022-10-30T05:48:04.994Z,13.03
2022-10-30T05:50:32.998Z,12.98
2022-10-30T05:53:03.931Z,13.01
2022-10-30T05:55:31.983Z,12.98
2022-10-30T05:58:05.510Z,12.92
2022-10-30T06:00:36.606Z,13.00
2022-10-30T06:03:07.976Z,12.97
2022-10-30T06:05:37.293Z,13.00
2022-10-30T06:08:06.463Z,13.06
2022-10-30T06:10:34.126Z,13.10
2022-10-30T06:13:05.308Z,13.05
2022-10-30T06:15:33.476Z,13.14
2022-10-30T06:18:01.528Z,13.16
2022-10-30T06:20:30.935Z,13.15
2022-10-30T06:23:05.501Z,13.21
2022-10-30T06:25:40.793Z,13.34
2022-10-30T06:28:10.575Z,13.27
2022-10-30T06:30:38.152Z,13.34
2022-10-30T06:33:06.289Z,13.33
2022-10-30T06:35:33.452Z,13.32
2022-10-30T06:38:00.933Z,13.40
2022-10-30T06:40:32.310Z,13.47
2022-10-30T06:42:59.861Z,13.54
2022-10-30T06:45:27.570Z,13.59
2022-10-30T06:47:54.800Z,13.65
2022-10-30T06:50:24.258Z,13.70
2022-10-30T06:52:51.889Z,13.78
2022-10-30T06:55:19.204Z,13.76
2022-10-30T06:57:46.643Z,13.81
2022-10-30T07:00:15.183Z,13.89
2022-10-30T07:02:42.695Z,13.94
2022-10-30T07:05:10.144Z,14.09
2022-10-30T07:07:37.317Z,14.18
2022-10-30T07:10:04.954Z,14.27
2022-10-30T07:12:32.422Z,14.44
2022-10-30T07:14:59.664Z,14.69
2022-10-30T07:17:26.905Z,14.93
2022-10-30T07:20:00.213Z,15.07
2022-10-30T07:22:27.503Z,15.15
2022-10-30T07:24:54.927Z,15.28
2022-10-30T07:27:22.558Z,15.48
2022-10-30T07:29:49.718Z,15.56
2022-10-30T07:32:17.136Z,15.70
2022-10-30T07:34:44.437Z,16.04
2022-10-30T07:37:11.788Z,16.00
2022-10-30T07:39:39.171Z,16.28
2022-10-30T07:42:06.472Z,16.64
2022-10-30T07:44:33.622Z,17.25
2022-10-30T07:47:01.454Z,17.78
2022-10-30T07:49:30.264Z,18.35
2022-10-30T07:51:57.411Z,18.77
2022-10-30T07:54:24.924Z,19.11
2022-10-30T07:56:52.140Z,19.43
2022-10-30T07:59:19.395Z,19.44
2022-10-30T08:01:46.910Z,20.02
2022-10-30T08:04:14.333Z,21.56
2022-10-30T08:06:41.702Z,23.03
2022-10-30T08:09:09.997Z,24.47
2022-10-30T08:11:37.353Z,25.91
2022-10-30T08:14:05.116Z,27.23
2022-10-30T08:16:32.427Z,28.52
2022-10-30T08:18:59.987Z,29.58
2022-10-30T08:21:27.619Z,30.19
2022-10-30T08:23:54.782Z,31.23
2022-10-30T08:26:22.184Z,32.04
2022-10-30T08:28:49.414Z,32.89
2022-10-30T08:31:16.830Z,33.67
2022-10-30T08:33:45.728Z,34.46
2022-10-30T08:36:13.162Z,35.21
2022-10-30T08:38:40.297Z,35.76
2022-10-30T08:41:07.387Z,35.74
2022-10-30T08:43:34.878Z,36.26
2022-10-30T08:46:02.273Z,36.82
2022-10-30T08:48:29.738Z,37.70
2022-10-30T08:51:03.210Z,38.57
2022-10-30T08:53:30.705Z,39.27
2022-10-30T08:55:57.878Z,39.78
2022-10-30T08:58:25.325Z,39.84
2022-10-30T09:00:54.889Z,37.92
2022-10-30T09:03:26.068Z,36.52
2022-10-30T09:05:53.278Z,37.24
2022-10-30T09:08:20.427Z,38.04
2022-10-30T09:10:47.899Z,39.15
2022-10-30T09:13:15.138Z,38.36
2022-10-30T09:15:43.547Z,40.21
2022-10-30T09:18:10.876Z,39.87
2022-10-30T09:20:38.629Z,40.00
2022-10-30T09:23:05.817Z,41.08
2022-10-30T09:25:33.491Z,41.46
2022-10-30T09:28:00.732Z,41.76
2022-10-30T09:30:28.066Z,43.31
2022-10-30T09:33:02.866Z,43.15
2022-10-30T09:35:31.137Z,43.45
2022-10-30T09:37:58.900Z,42.94
2022-10-30T09:41:10.487Z,42.98
2022-10-30T09:44:10.569Z,43.12
2022-10-30T09:47:02.200Z,43.24
2022-10-30T09:49:42.379Z,43.70
2022-10-30T09:52:36.747Z,44.41
2022-10-30T09:55:27.744Z,44.73
2022-10-30T09:58:32.032Z,44.54
2022-10-30T10:01:07.332Z,44.34
2022-10-30T10:03:58.702Z,44.70
2022-10-30T10:06:27.280Z,45.51
2022-10-30T10:09:19.761Z,45.82
2022-10-30T10:11:56.132Z,46.14
2022-10-30T10:14:40.821Z,45.25
2022-10-30T10:17:28.417Z,45.36
2022-10-30T10:19:59.565Z,45.91
2022-10-30T10:22:50.792Z,45.36
2022-10-30T10:25:20.977Z,45.62
2022-10-30T10:28:36.517Z,45.01
2022-10-30T10:31:42.864Z,45.37
2022-10-30T10:34:27.594Z,45.63
2022-10-30T10:37:17.915Z,46.57
2022-10-30T10:40:35.157Z,46.31
2022-10-30T10:43:23.481Z,46.93
2022-10-30T10:45:59.500Z,46.89
2022-10-30T10:48:32.490Z,47.53
2022-10-30T10:51:10.541Z,48.39
2022-10-30T10:53:53.311Z,48.46
2022-10-30T10:56:39.533Z,49.78
2022-10-30T10:59:32.052Z,50.58
2022-10-30T11:02:20.825Z,49.77
2022-10-30T11:05:02.818Z,50.20
2022-10-30T11:07:35.938Z,49.38
2022-10-30T11:10:13.452Z,50.47
2022-10-30T11:12:42.773Z,50.51
2022-10-30T11:15:42.190Z,50.78
2022-10-30T11:18:10.773Z,48.95
2022-10-30T11:21:17.599Z,46.25
2022-10-30T11:23:48.142Z,44.93
2022-10-30T11:26:18.348Z,43.46
2022-10-30T11:29:04.204Z,43.97
2022-10-30T11:31:40.144Z,43.09
2022-10-30T11:34:24.813Z,41.58
2022-10-30T11:36:54.522Z,40.94
2022-10-30T11:39:23.515Z,40.73
2022-10-30T11:41:58.953Z,39.96
2022-10-30T11:44:50.667Z,40.37
2022-10-30T11:47:25.076Z,40.49
2022-10-30T11:49:58.794Z,40.68
2022-10-30T11:52:27.497Z,39.95
2022-10-30T11:55:01.365Z,39.50
2022-10-30T11:57:37.100Z,41.62
2022-10-30T12:00:14.461Z,42.69
2022-10-30T12:02:46.078Z,42.30
2022-10-30T12:05:41.642Z,44.71
2022-10-30T12:08:16.357Z,45.89
2022-10-30T12:10:56.325Z,46.73
2022-10-30T12:13:26.078Z,47.06
2022-10-30T12:16:18.785Z,49.00
2022-10-30T12:19:00.120Z,49.44
2022-10-30T12:21:34.959Z,51.00
2022-10-30T12:24:07.374Z,51.04
2022-10-30T12:26:37.922Z,49.82
2022-10-30T12:29:15.618Z,46.20
2022-10-30T12:32:08.026Z,44.65
2022-10-30T12:34:50.630Z,44.08
2022-10-30T12:37:23.622Z,45.48
2022-10-30T12:40:18.866Z,46.50
2022-10-30T12:43:08.537Z,46.87
2022-10-30T12:45:46.314Z,46.90
2022-10-30T12:48:33.974Z,47.02
2022-10-30T12:51:18.366Z,46.80
2022-10-30T12:53:58.679Z,46.76
2022-10-30T12:56:36.027Z,46.90
2022-10-30T12:59:34.911Z,46.58
2022-10-30T13:02:12.653Z,46.32
2022-10-30T13:04:47.853Z,46.49
2022-10-30T13:07:41.666Z,47.26
2022-10-30T13:10:38.720Z,47.27
2022-10-30T13:13:23.379Z,47.18
2022-10-30T13:15:57.906Z,47.23
2022-10-30T13:18:27.410Z,47.51
2022-10-30T13:21:21.996Z,47.63
2022-10-30T13:24:11.608Z,47.87
2022-10-30T13:27:02.430Z,47.34
2022-10-30T13:29:39.730Z,47.02
2022-10-30T13:32:53.538Z,47.54
2022-10-30T13:35:54.860Z,47.36
2022-10-30T13:38:57.225Z,44.80
2022-10-30T13:41:45.200Z,42.71
2022-10-30T13:44:30.555Z,40.77
2022-10-30T13:47:31.961Z,38.80
2022-10-30T13:50:15.276Z,37.90
2022-10-30T13:52:53.583Z,36.66
2022-10-30T13:55:31.241Z,35.86
2022-10-30T13:58:28.484Z,34.63
2022-10-30T14:01:01.256Z,35.12
2022-10-30T14:03:53.514Z,36.26
2022-10-30T14:06:51.952Z,35.48
2022-10-30T14:10:02.088Z,34.45
2022-10-30T14:13:07.791Z,33.36
2022-10-30T14:15:42.612Z,32.56
2022-10-30T14:18:12.702Z,31.74
2022-10-30T14:20:49.457Z,31.06
2022-10-30T14:23:45.592Z,30.16
2022-10-30T14:26:15.193Z,29.86
2022-10-30T14:28:45.289Z,30.48
2022-10-30T14:31:17.608Z,31.03
2022-10-30T14:33:54.250Z,31.23
2022-10-30T14:36:34.720Z,31.38
2022-10-30T14:39:10.986Z,31.13
2022-10-30T14:42:10.380Z,30.72
2022-10-30T14:45:18.426Z,30.49
2022-10-30T14:47:56.532Z,30.07
2022-10-30T14:50:26.442Z,29.46
2022-10-30T14:53:41.365Z,28.28
2022-10-30T14:56:26.345Z,27.75
2022-10-30T14:59:34.153Z,27.13
2022-10-30T15:02:35.537Z,26.19
2022-10-30T15:06:02.392Z,25.62
2022-10-30T15:08:42.779Z,24.96
2022-10-30T15:11:37.005Z,24.59
2022-10-30T15:14:21.696Z,24.16
2022-10-30T15:16:54.186Z,23.82
2022-10-30T15:19:24.810Z,23.62
2022-10-30T15:21:55.947Z,23.45
2022-10-30T15:24:32.103Z,23.21
2022-10-30T15:27:02.569Z,22.91
2022-10-30T15:29:36.891Z,22.62
2022-10-30T15:32:24.745Z,22.48
2022-10-30T15:35:04.739Z,22.31
2022-10-30T15:37:32.674Z,22.15
2022-10-30T15:40:19.847Z,21.92
2022-10-30T15:42:50.500Z,21.86
2022-10-30T15:45:41.623Z,21.70
2022-10-30T15:48:28.248Z,21.63
2022-10-30T15:51:06.836Z,21.59
2022-10-30T15:53:59.834Z,21.40
2022-10-30T15:56:29.137Z,21.38
2022-10-30T15:59:05.994Z,21.27
2022-10-30T16:01:45.390Z,21.15
2022-10-30T16:04:19.376Z,21.05
2022-10-30T16:07:24.880Z,20.93
2022-10-30T16:10:02.854Z,20.76
2022-10-30T16:12:34.491Z,20.74
2022-10-30T16:15:17.715Z,20.68
2022-10-30T16:17:45.004Z,20.58
2022-10-30T16:20:20.000Z,20.54
2022-10-30T16:22:47.702Z,20.48
2022-10-30T16:25:17.592Z,20.40
2022-10-30T16:27:46.166Z,20.35
2022-10-30T16:30:16.245Z,20.21
2022-10-30T16:32:55.636Z,20.19
2022-10-30T16:35:25.308Z,20.12
2022-10-30T16:37:54.803Z,20.08
2022-10-30T16:40:28.119Z,19.95
2022-10-30T16:43:00.182Z,19.97
2022-10-30T16:45:36.398Z,19.90
2022-10-30T16:50:45.163Z,19.69
2022-10-30T16:53:22.845Z,19.60
2022-10-30T16:55:51.700Z,19.63
2022-10-30T16:58:24.332Z,19.38
2022-10-30T17:01:02.319Z,19.48
2022-10-30T17:03:39.078Z,19.38
2022-10-30T17:06:27.357Z,19.36
2022-10-30T17:08:59.769Z,19.29
2022-10-30T17:12:01.547Z,19.24
2022-10-30T17:14:29.045Z,19.22
2022-10-30T17:17:00.291Z,19.17
2022-10-30T17:19:30.732Z,19.00
2022-10-30T17:22:17.181Z,19.03
2022-10-30T17:24:45.193Z,18.92
2022-10-30T17:27:47.431Z,18.88
2022-10-30T17:30:32.568Z,18.84
2022-10-30T17:33:02.439Z,18.85
2022-10-30T17:35:30.314Z,18.81
2022-10-30T17:37:59.905Z,18.66
2022-10-30T17:40:30.337Z,18.73
2022-10-30T17:42:57.574Z,18.70
2022-10-30T17:45:25.038Z,18.66
2022-10-30T17:47:52.218Z,18.60
2022-10-30T17:50:19.638Z,18.60
2022-10-30T17:52:46.852Z,18.54
2022-10-30T17:55:37.182Z,18.38
2022-10-30T17:58:04.343Z,18.41
2022-10-30T18:00:31.781Z,18.43
2022-10-30T18:02:59.321Z,18.41
2022-10-30T18:05:30.260Z,18.42
2022-10-30T18:07:57.514Z,18.40
2022-10-30T18:10:25.027Z,18.39
2022-10-30T18:12:52.270Z,18.37
2022-10-30T18:15:39.298Z,18.33
2022-10-30T18:18:06.715Z,18.32
2022-10-30T18:20:34.505Z,18.31
2022-10-30T18:23:02.219Z,18.31
2022-10-30T18:25:36.303Z,18.25
2022-10-30T18:28:03.891Z,18.18
2022-10-30T18:30:31.344Z,18.19
2022-10-30T18:32:59.234Z,18.21
2022-10-30T18:35:30.417Z,18.11
2022-10-30T18:37:58.758Z,18.05
2022-10-30T18:40:28.383Z,17.94
2022-10-30T18:42:55.974Z,17.85
2022-10-30T18:45:36.166Z,17.86
2022-10-30T18:48:04.385Z,17.81
2022-10-30T18:50:32.317Z,17.70
2022-10-30T18:53:01.699Z,17.69
2022-10-30T18:55:40.606Z,17.65
2022-10-30T18:58:09.364Z,17.56
2022-10-30T19:00:58.298Z,17.57
2022-10-30T19:03:26.987Z,17.49
2022-10-30T19:05:54.482Z,17.50
2022-10-30T19:08:21.741Z,17.38
2022-10-30T19:10:49.359Z,17.41
2022-10-30T19:13:22.170Z,17.39
2022-10-30T19:15:59.032Z,17.38
2022-10-30T19:18:28.906Z,17.38
2022-10-30T19:21:05.826Z,17.30
2022-10-30T19:23:34.420Z,17.23
2022-10-30T19:26:01.921Z,17.23
2022-10-30T19:28:30.898Z,17.21
2022-10-30T19:30:58.422Z,17.19
2022-10-30T19:33:25.853Z,17.19
2022-10-30T19:36:01.059Z,17.12
2022-10-30T19:38:29.207Z,17.12
2022-10-30T19:40:56.935Z,17.10
2022-10-30T19:43:24.886Z,17.04
2022-10-30T19:45:59.384Z,17.03
2022-10-30T19:48:55.965Z,16.97
2022-10-30T19:51:14.080Z,16.86
2022-10-30T19:53:42.380Z,16.80
2022-10-30T19:56:15.369Z,16.70
2022-10-30T19:58:42.633Z,16.70
2022-10-30T20:01:13.530Z,16.64
2022-10-30T20:03:40.817Z,16.55
2022-10-30T20:06:14.555Z,16.46
2022-10-30T20:08:42.449Z,16.33
2022-10-30T20:11:09.911Z,16.40
2022-10-30T20:13:37.552Z,16.34
2022-10-30T20:16:06.011Z,16.28
2022-10-30T20:18:36.318Z,16.26
2022-10-30T20:21:11.584Z,16.18
2022-10-30T20:23:40.504Z,16.09
2022-10-30T20:26:21.757Z,16.00
2022-10-30T20:28:49.628Z,16.03
2022-10-30T20:31:17.053Z,16.00
2022-10-30T20:33:44.495Z,15.98
2022-10-30T20:36:13.914Z,15.95
2022-10-30T20:38:41.161Z,15.92
2022-10-30T20:41:24.285Z,15.90
2022-10-30T20:43:52.307Z,15.86
2022-10-30T20:46:21.250Z,15.80
2022-10-30T20:48:48.863Z,15.78
2022-10-30T20:51:17.789Z,15.74
2022-10-30T20:53:45.011Z,15.66
2022-10-30T20:56:12.329Z,15.65
2022-10-30T20:58:40.425Z,15.64
2022-10-30T21:01:08.061Z,15.68
2022-10-30T21:03:35.500Z,15.59
2022-10-30T21:06:02.832Z,15.52
2022-10-30T21:08:32.019Z,15.51
2022-10-30T21:11:05.536Z,15.44
2022-10-30T21:13:36.525Z,15.44
2022-10-30T21:16:08.305Z,15.33
2022-10-30T21:18:35.904Z,15.33
2022-10-30T21:21:06.893Z,15.23
2022-10-30T21:23:34.466Z,15.26
2022-10-30T21:26:04.991Z,15.21
2022-10-30T21:28:32.489Z,15.17
2022-10-30T21:31:06.024Z,15.18
2022-10-30T21:33:35.538Z,15.19
2022-10-30T21:36:15.989Z,15.21
2022-10-30T21:38:44.776Z,15.16
2022-10-30T21:41:21.825Z,15.14
2022-10-30T21:43:56.092Z,15.15
2022-10-30T21:46:28.257Z,15.18
2022-10-30T21:48:56.632Z,15.19
2022-10-30T21:51:27.079Z,15.19
2022-10-30T21:53:56.232Z,15.17
2022-10-30T21:56:29.966Z,15.20
2022-10-30T21:59:04.794Z,15.22
2022-10-30T22:01:37.449Z,15.23
2022-10-30T22:04:07.757Z,15.28
2022-10-30T22:06:41.308Z,15.30
2022-10-30T22:09:09.833Z,15.28
2022-10-30T22:11:37.785Z,15.32
2022-10-30T22:14:06.361Z,15.36
2022-10-30T22:16:37.494Z,15.38
2022-10-30T22:19:08.398Z,15.36
2022-10-30T22:21:35.913Z,15.32
2022-10-30T22:24:04.322Z,15.39
2022-10-30T22:26:31.953Z,15.41
2022-10-30T22:29:00.730Z,15.40
2022-10-30T22:31:30.629Z,15.46
2022-10-30T22:34:00.886Z,15.40
2022-10-30T22:36:31.588Z,15.35
2022-10-30T22:39:13.473Z,15.36
2022-10-30T22:41:42.232Z,15.32
2022-10-30T22:44:17.351Z,15.33
2022-10-30T22:46:45.513Z,15.33
2022-10-30T22:49:12.817Z,15.27
2022-10-30T22:51:40.507Z,15.29
2022-10-30T22:54:12.787Z,15.32
2022-10-30T22:56:41.363Z,15.23
2022-10-30T22:59:13.412Z,15.20
2022-10-30T23:01:42.249Z,15.16
2022-10-30T23:04:14.125Z,15.10
2022-10-30T23:06:42.455Z,15.01
2022-10-30T23:09:18.751Z,14.99
2022-10-30T23:11:46.215Z,14.96
2022-10-30T23:14:15.335Z,14.96
2022-10-30T23:16:42.675Z,14.98
2022-10-30T23:19:11.509Z,14.96
2022-10-30T23:21:39.067Z,14.99
2022-10-30T23:24:07.035Z,14.95
2022-10-30T23:26:35.803Z,14.94
2022-10-30T23:29:03.980Z,14.96
2022-10-30T23:31:38.618Z,14.93
2022-10-30T23:34:11.333Z,14.94
2022-10-30T23:36:39.501Z,14.92
2022-10-30T23:39:13.159Z,14.89
2022-10-30T23:41:40.663Z,14.83
2022-10-30T23:44:13.412Z,14.83
2022-10-30T23:46:41.008Z,14.81
2022-10-30T23:49:08.421Z,14.78
2022-10-30T23:51:35.693Z,14.75
2022-10-30T23:54:03.111Z,14.70
2022-10-30T23:56:30.322Z,14.66
2022-10-30T23:58:58.295Z,14.64
